sensor_id;sensor_type;location;lat;lon;timestamp;temperature;humidity
64599;SHT31;51008;51.504;11.548;2023-04-01T00:03:03;8.83;93.73
64599;SHT31;51008;51.504;11.548;2023-04-01T00:08:04;8.75;93.99
64599;SHT31;51008;51.504;11.548;2023-04-01T00:13:06;8.71;94.29
64599;SHT31;51008;51.504;11.548;2023-04-01T00:18:07;8.65;94.54
64599;SHT31;51008;51.504;11.548;2023-04-01T00:23:08;8.65;94.55
64599;SHT31;51008;51.504;11.548;2023-04-01T00:28:09;8.72;94.16
64599;SHT31;51008;51.504;11.548;2023-04-01T00:33:10;8.79;93.76
64599;SHT31;51008;51.504;11.548;2023-04-01T00:38:11;8.80;93.53
64599;SHT31;51008;51.504;11.548;2023-04-01T00:43:18;8.84;93.33
64599;SHT31;51008;51.504;11.548;2023-04-01T00:48:25;8.83;93.25
64599;SHT31;51008;51.504;11.548;2023-04-01T00:53:28;8.84;93.24
64599;SHT31;51008;51.504;11.548;2023-04-01T00:58:31;8.84;93.22
64599;SHT31;51008;51.504;11.548;2023-04-01T01:03:33;8.87;92.91
64599;SHT31;51008;51.504;11.548;2023-04-01T01:08:59;8.91;92.69
64599;SHT31;51008;51.504;11.548;2023-04-01T01:14:34;8.93;92.81
64599;SHT31;51008;51.504;11.548;2023-04-01T01:19:50;8.89;92.88
64599;SHT31;51008;51.504;11.548;2023-04-01T01:25:16;8.96;92.37
64599;SHT31;51008;51.504;11.548;2023-04-01T01:30:38;8.99;92.42
64599;SHT31;51008;51.504;11.548;2023-04-01T01:35:49;8.99;92.19
64599;SHT31;51008;51.504;11.548;2023-04-01T01:40:55;8.97;92.51
64599;SHT31;51008;51.504;11.548;2023-04-01T01:46:00;8.99;92.32
64599;SHT31;51008;51.504;11.548;2023-04-01T01:51:04;8.97;92.38
64599;SHT31;51008;51.504;11.548;2023-04-01T01:56:06;8.93;92.63
64599;SHT31;51008;51.504;11.548;2023-04-01T02:01:24;8.96;92.31
64599;SHT31;51008;51.504;11.548;2023-04-01T02:06:28;8.96;92.39
64599;SHT31;51008;51.504;11.548;2023-04-01T02:11:34;8.96;92.69
64599;SHT31;51008;51.504;11.548;2023-04-01T02:16:48;8.96;92.86
64599;SHT31;51008;51.504;11.548;2023-04-01T02:21:53;8.96;92.62
64599;SHT31;51008;51.504;11.548;2023-04-01T02:26:55;8.93;93.04
64599;SHT31;51008;51.504;11.548;2023-04-01T02:31:56;8.87;93.20
64599;SHT31;51008;51.504;11.548;2023-04-01T02:36:58;8.89;93.17
64599;SHT31;51008;51.504;11.548;2023-04-01T02:41:59;8.80;92.93
64599;SHT31;51008;51.504;11.548;2023-04-01T02:47:00;8.82;93.25
64599;SHT31;51008;51.504;11.548;2023-04-01T02:52:01;8.79;93.25
64599;SHT31;51008;51.504;11.548;2023-04-01T02:57:02;8.80;93.12
64599;SHT31;51008;51.504;11.548;2023-04-01T03:02:04;8.79;93.08
64599;SHT31;51008;51.504;11.548;2023-04-01T03:07:05;8.82;93.19
64599;SHT31;51008;51.504;11.548;2023-04-01T03:12:06;8.76;93.63
64599;SHT31;51008;51.504;11.548;2023-04-01T03:17:17;8.69;94.36
64599;SHT31;51008;51.504;11.548;2023-04-01T03:22:18;8.68;94.08
64599;SHT31;51008;51.504;11.548;2023-04-01T03:27:19;8.72;93.90
64599;SHT31;51008;51.504;11.548;2023-04-01T03:32:20;8.68;93.93
64599;SHT31;51008;51.504;11.548;2023-04-01T03:37:23;8.69;93.46
64599;SHT31;51008;51.504;11.548;2023-04-01T03:42:25;8.72;93.43
64599;SHT31;51008;51.504;11.548;2023-04-01T03:47:26;8.73;93.12
64599;SHT31;51008;51.504;11.548;2023-04-01T03:52:27;8.71;93.19
64599;SHT31;51008;51.504;11.548;2023-04-01T03:57:31;8.76;92.96
64599;SHT31;51008;51.504;11.548;2023-04-01T04:02:36;8.77;92.99
64599;SHT31;51008;51.504;11.548;2023-04-01T04:07:37;8.71;92.99
64599;SHT31;51008;51.504;11.548;2023-04-01T04:12:41;8.75;92.46
64599;SHT31;51008;51.504;11.548;2023-04-01T04:17:44;8.77;92.33
64599;SHT31;51008;51.504;11.548;2023-04-01T04:22:45;8.72;92.44
64599;SHT31;51008;51.504;11.548;2023-04-01T04:27:46;8.75;92.14
64599;SHT31;51008;51.504;11.548;2023-04-01T04:32:49;8.80;91.93
64599;SHT31;51008;51.504;11.548;2023-04-01T04:37:50;8.84;91.90
64599;SHT31;51008;51.504;11.548;2023-04-01T04:42:52;8.80;91.87
64599;SHT31;51008;51.504;11.548;2023-04-01T04:47:54;8.87;91.47
64599;SHT31;51008;51.504;11.548;2023-04-01T04:52:55;8.86;91.40
64599;SHT31;51008;51.504;11.548;2023-04-01T04:57:57;8.91;91.12
64599;SHT31;51008;51.504;11.548;2023-04-01T05:02:58;8.83;91.38
64599;SHT31;51008;51.504;11.548;2023-04-01T05:07:59;8.94;90.86
64599;SHT31;51008;51.504;11.548;2023-04-01T05:13:00;8.96;90.80
64599;SHT31;51008;51.504;11.548;2023-04-01T05:18:01;8.97;90.62
64599;SHT31;51008;51.504;11.548;2023-04-01T05:23:02;9.03;90.44
64599;SHT31;51008;51.504;11.548;2023-04-01T05:28:03;9.06;90.66
64599;SHT31;51008;51.504;11.548;2023-04-01T05:33:04;9.04;90.41
64599;SHT31;51008;51.504;11.548;2023-04-01T05:38:06;9.08;90.45
64599;SHT31;51008;51.504;11.548;2023-04-01T05:43:07;9.08;90.31
64599;SHT31;51008;51.504;11.548;2023-04-01T05:48:08;9.10;89.90
64599;SHT31;51008;51.504;11.548;2023-04-01T05:53:13;9.16;89.84
64599;SHT31;51008;51.504;11.548;2023-04-01T05:58:17;9.14;90.44
64599;SHT31;51008;51.504;11.548;2023-04-01T06:03:21;9.13;89.76
64599;SHT31;51008;51.504;11.548;2023-04-01T06:08:23;9.13;90.12
64599;SHT31;51008;51.504;11.548;2023-04-01T06:19:13;9.14;90.06
64599;SHT31;51008;51.504;11.548;2023-04-01T06:40:28;9.28;88.99
64599;SHT31;51008;51.504;11.548;2023-04-01T06:45:48;9.36;89.30
64599;SHT31;51008;51.504;11.548;2023-04-01T06:57:33;9.53;88.56
64599;SHT31;51008;51.504;11.548;2023-04-01T07:02:52;9.52;88.14
64599;SHT31;51008;51.504;11.548;2023-04-01T07:07:57;9.65;88.47
64599;SHT31;51008;51.504;11.548;2023-04-01T07:13:06;9.70;87.92
64599;SHT31;51008;51.504;11.548;2023-04-01T07:18:47;9.79;86.69
64599;SHT31;51008;51.504;11.548;2023-04-01T07:23:50;9.83;87.22
64599;SHT31;51008;51.504;11.548;2023-04-01T07:29:09;9.90;86.64
64599;SHT31;51008;51.504;11.548;2023-04-01T07:34:27;10.04;86.44
64599;SHT31;51008;51.504;11.548;2023-04-01T07:45:31;10.48;85.89
64599;SHT31;51008;51.504;11.548;2023-04-01T07:51:09;10.55;84.76
64599;SHT31;51008;51.504;11.548;2023-04-01T07:56:19;10.66;84.50
64599;SHT31;51008;51.504;11.548;2023-04-01T08:06:50;10.87;83.29
64599;SHT31;51008;51.504;11.548;2023-04-01T08:12:41;10.80;83.22
64599;SHT31;51008;51.504;11.548;2023-04-01T08:23:51;11.07;82.93
64599;SHT31;51008;51.504;11.548;2023-04-01T08:29:17;11.34;82.47
64599;SHT31;51008;51.504;11.548;2023-04-01T08:34:24;11.55;82.55
64599;SHT31;51008;51.504;11.548;2023-04-01T08:39:49;11.59;81.18
64599;SHT31;51008;51.504;11.548;2023-04-01T08:55:40;11.36;79.51
64599;SHT31;51008;51.504;11.548;2023-04-01T09:21:57;11.32;83.70
64599;SHT31;51008;51.504;11.548;2023-04-01T09:32:26;11.34;82.85
64599;SHT31;51008;51.504;11.548;2023-04-01T09:38:28;11.39;81.90
64599;SHT31;51008;51.504;11.548;2023-04-01T09:49:00;11.77;79.70
64599;SHT31;51008;51.504;11.548;2023-04-01T10:22:11;12.48;77.43
64599;SHT31;51008;51.504;11.548;2023-04-01T10:27:45;12.26;78.51
64599;SHT31;51008;51.504;11.548;2023-04-01T10:38:49;12.39;79.62
64599;SHT31;51008;51.504;11.548;2023-04-01T11:00:15;11.77;86.46
64599;SHT31;51008;51.504;11.548;2023-04-01T11:17:27;11.97;84.98
64599;SHT31;51008;51.504;11.548;2023-04-01T11:28:47;11.36;87.35
64599;SHT31;51008;51.504;11.548;2023-04-01T11:39:55;10.58;92.22
64599;SHT31;51008;51.504;11.548;2023-04-01T11:46:02;10.77;91.96
64599;SHT31;51008;51.504;11.548;2023-04-01T11:56:34;11.18;89.56
64599;SHT31;51008;51.504;11.548;2023-04-01T12:02:09;11.14;90.34
64599;SHT31;51008;51.504;11.548;2023-04-01T12:07:38;11.14;91.17
64599;SHT31;51008;51.504;11.548;2023-04-01T12:12:52;11.11;89.89
64599;SHT31;51008;51.504;11.548;2023-04-01T12:23:18;11.12;91.05
64599;SHT31;51008;51.504;11.548;2023-04-01T12:33:41;11.18;88.58
64599;SHT31;51008;51.504;11.548;2023-04-01T12:39:16;11.28;88.18
64599;SHT31;51008;51.504;11.548;2023-04-01T12:55:23;11.48;88.24
64599;SHT31;51008;51.504;11.548;2023-04-01T13:01:11;11.55;89.34
64599;SHT31;51008;51.504;11.548;2023-04-01T13:16:55;11.35;87.97
64599;SHT31;51008;51.504;11.548;2023-04-01T13:22:17;11.18;88.61
64599;SHT31;51008;51.504;11.548;2023-04-01T13:27:40;11.10;90.26
64599;SHT31;51008;51.504;11.548;2023-04-01T13:33:04;10.97;90.44
64599;SHT31;51008;51.504;11.548;2023-04-01T13:43:31;10.84;89.86
64599;SHT31;51008;51.504;11.548;2023-04-01T13:54:26;10.93;89.02
64599;SHT31;51008;51.504;11.548;2023-04-01T13:59:41;11.04;90.70
64599;SHT31;51008;51.504;11.548;2023-04-01T14:10:25;11.08;90.95
64599;SHT31;51008;51.504;11.548;2023-04-01T14:15:41;10.97;90.62
64599;SHT31;51008;51.504;11.548;2023-04-01T14:20:53;11.10;91.04
64599;SHT31;51008;51.504;11.548;2023-04-01T14:31:50;11.12;91.57
64599;SHT31;51008;51.504;11.548;2023-04-01T14:47:47;10.99;93.25
64599;SHT31;51008;51.504;11.548;2023-04-01T14:52:58;10.87;94.25
64599;SHT31;51008;51.504;11.548;2023-04-01T14:58:17;10.69;94.80
64599;SHT31;51008;51.504;11.548;2023-04-01T15:08:26;10.65;96.04
64599;SHT31;51008;51.504;11.548;2023-04-01T15:18:57;10.55;96.46
64599;SHT31;51008;51.504;11.548;2023-04-01T15:24:16;10.69;97.03
64599;SHT31;51008;51.504;11.548;2023-04-01T15:29:30;10.65;96.64
64599;SHT31;51008;51.504;11.548;2023-04-01T15:34:57;10.75;96.83
64599;SHT31;51008;51.504;11.548;2023-04-01T15:40:18;10.69;96.76
64599;SHT31;51008;51.504;11.548;2023-04-01T15:45:48;10.75;96.99
64599;SHT31;51008;51.504;11.548;2023-04-01T15:51:19;10.76;96.73
64599;SHT31;51008;51.504;11.548;2023-04-01T15:56:28;10.80;96.44
64599;SHT31;51008;51.504;11.548;2023-04-01T16:01:54;10.70;97.08
64599;SHT31;51008;51.504;11.548;2023-04-01T16:12:36;10.53;95.91
64599;SHT31;51008;51.504;11.548;2023-04-01T16:23:28;10.25;96.33
64599;SHT31;51008;51.504;11.548;2023-04-01T16:28:48;10.17;97.58
64599;SHT31;51008;51.504;11.548;2023-04-01T16:34:08;10.11;97.87
64599;SHT31;51008;51.504;11.548;2023-04-01T16:50:30;9.94;98.99
64599;SHT31;51008;51.504;11.548;2023-04-01T16:55:50;9.93;98.94
64599;SHT31;51008;51.504;11.548;2023-04-01T17:01:09;9.89;98.97
64599;SHT31;51008;51.504;11.548;2023-04-01T17:11:28;9.83;99.65
64599;SHT31;51008;51.504;11.548;2023-04-01T17:16:52;9.82;99.92
64599;SHT31;51008;51.504;11.548;2023-04-01T17:22:55;9.78;99.99
64599;SHT31;51008;51.504;11.548;2023-04-01T17:43:32;9.51;99.99
64599;SHT31;51008;51.504;11.548;2023-04-01T17:53:51;9.44;99.99
64599;SHT31;51008;51.504;11.548;2023-04-01T18:15:31;9.27;99.99
64599;SHT31;51008;51.504;11.548;2023-04-01T18:25:53;9.31;99.99
64599;SHT31;51008;51.504;11.548;2023-04-01T18:31:07;9.28;99.99
64599;SHT31;51008;51.504;11.548;2023-04-01T18:41:30;9.27;99.99
64599;SHT31;51008;51.504;11.548;2023-04-01T18:52:56;9.31;99.99
64599;SHT31;51008;51.504;11.548;2023-04-01T18:58:17;9.21;99.99
64599;SHT31;51008;51.504;11.548;2023-04-01T19:04:00;9.23;99.99
64599;SHT31;51008;51.504;11.548;2023-04-01T19:09:27;9.17;99.64
64599;SHT31;51008;51.504;11.548;2023-04-01T19:15:09;8.83;99.55
64599;SHT31;51008;51.504;11.548;2023-04-01T19:20:32;8.58;98.89
64599;SHT31;51008;51.504;11.548;2023-04-01T19:25:40;8.36;98.82
64599;SHT31;51008;51.504;11.548;2023-04-01T19:35:57;8.00;98.97
64599;SHT31;51008;51.504;11.548;2023-04-01T19:56:22;7.82;98.83
64599;SHT31;51008;51.504;11.548;2023-04-01T20:06:43;7.55;98.48
64599;SHT31;51008;51.504;11.548;2023-04-01T20:27:27;7.16;98.68
64599;SHT31;51008;51.504;11.548;2023-04-01T20:32:46;7.12;98.83
64599;SHT31;51008;51.504;11.548;2023-04-01T20:43:24;7.09;98.92
64599;SHT31;51008;51.504;11.548;2023-04-01T21:15:29;6.71;98.69
64599;SHT31;51008;51.504;11.548;2023-04-01T21:31:00;6.58;99.35
64599;SHT31;51008;51.504;11.548;2023-04-01T21:36:10;6.54;99.87
64599;SHT31;51008;51.504;11.548;2023-04-01T21:57:47;6.27;99.66
64599;SHT31;51008;51.504;11.548;2023-04-01T22:13:48;5.94;99.67
64599;SHT31;51008;51.504;11.548;2023-04-01T22:18:59;5.82;99.46
64599;SHT31;51008;51.504;11.548;2023-04-01T22:24:08;5.85;99.47
64599;SHT31;51008;51.504;11.548;2023-04-01T22:40:16;5.47;99.13
64599;SHT31;51008;51.504;11.548;2023-04-01T22:50:32;5.30;99.28
64599;SHT31;51008;51.504;11.548;2023-04-01T22:55:38;5.18;99.11
64599;SHT31;51008;51.504;11.548;2023-04-01T23:00:49;5.13;99.36
64599;SHT31;51008;51.504;11.548;2023-04-01T23:06:00;5.13;99.85
64599;SHT31;51008;51.504;11.548;2023-04-01T23:11:05;5.08;99.99
64599;SHT31;51008;51.504;11.548;2023-04-01T23:16:08;4.94;99.99
64599;SHT31;51008;51.504;11.548;2023-04-01T23:27:12;4.87;99.74
64599;SHT31;51008;51.504;11.548;2023-04-01T23:32:18;4.91;99.91
64599;SHT31;51008;51.504;11.548;2023-04-01T23:37:20;4.92;99.99
64599;SHT31;51008;51.504;11.548;2023-04-01T23:42:30;4.89;99.99
64599;SHT31;51008;51.504;11.548;2023-04-01T23:47:37;4.84;99.99
64599;SHT31;51008;51.504;11.548;2023-04-01T23:52:44;4.73;99.99
